Renwick, Iowa
Current Conditions -  °F | °C
As of 7:15 AM on Wednesday 22 Oct 2014 (Local Time) from KCAV Reporting Station
Clear Clear  
Wind Chill: 33°   Ceiling: Unl
Heat Index: 41°   Visibility: 10mi
Dew Point: 39°   Wind: 15mph
Humidity: 93%   Direction: 140°SE
Pressure: 30.21"   Gusts: 21mph
Location:  42.83°N, 93.98°W
Report Text: KCAV 221215Z AUTO 14013G18KT 10SM CLR 05/04 A3021 RMK AO2
Loading
Personal Weather Stations






























Interactive Weather Map
Tropical Storm Tracking
New forecast layout! Learn more

10-Day Weather Forecast

Advertisements
Track Severe Weather on mobile